createdAt,value
2023-04-27T00:01:04.538Z,61.9
2023-04-27T00:02:21.978Z,62
2023-04-27T00:03:38.665Z,61.9
2023-04-27T00:04:55.840Z,61.8
2023-04-27T00:06:12.648Z,61.7
2023-04-27T00:07:29.561Z,61.8
2023-04-27T00:08:46.535Z,62.1
2023-04-27T00:10:03.542Z,62.2
2023-04-27T00:11:20.648Z,62.4
2023-04-27T00:12:37.600Z,62.4
2023-04-27T00:13:54.600Z,62.6
2023-04-27T00:15:11.574Z,62.9
2023-04-27T00:16:28.575Z,63.4
2023-04-27T00:17:45.848Z,64
2023-04-27T00:19:02.569Z,64.6
2023-04-27T00:20:19.616Z,65.1
2023-04-27T00:21:36.597Z,65.6
2023-04-27T00:22:53.553Z,65.9
2023-04-27T00:24:10.675Z,66.1
2023-04-27T00:25:27.604Z,66.4
2023-04-27T00:26:44.565Z,66.6
2023-04-27T00:28:01.601Z,66.9
2023-04-27T00:29:18.599Z,66.8
2023-04-27T00:30:35.678Z,66.6
2023-04-27T00:31:52.618Z,66.6
2023-04-27T00:33:09.567Z,66.1
2023-04-27T00:34:26.546Z,65.5
2023-04-27T00:35:44.320Z,65.1
2023-04-27T00:37:01.590Z,64.7
2023-04-27T00:38:18.589Z,64.3
2023-04-27T00:39:35.578Z,63.8
2023-04-27T00:40:52.616Z,63.5
2023-04-27T00:42:09.606Z,63.3
2023-04-27T00:43:26.742Z,63.2
2023-04-27T00:44:43.610Z,63
2023-04-27T00:46:00.704Z,62.9
2023-04-27T00:47:17.569Z,63.2
2023-04-27T00:48:34.584Z,63.4
2023-04-27T00:49:51.874Z,63.4
2023-04-27T00:51:08.631Z,63.4
2023-04-27T00:52:26.055Z,63.4
2023-04-27T00:53:42.610Z,63.6
2023-04-27T00:54:59.638Z,63.6
2023-04-27T00:56:16.597Z,63.8
2023-04-27T00:57:33.640Z,63.8
2023-04-27T00:58:50.668Z,63.7
2023-04-27T01:00:07.657Z,63.9
2023-04-27T01:01:24.667Z,63.9
2023-04-27T01:02:41.765Z,63.9
2023-04-27T01:03:58.758Z,63.7
2023-04-27T01:05:15.614Z,63.5
2023-04-27T01:06:32.602Z,63.4
2023-04-27T01:07:49.666Z,63.4
2023-04-27T01:09:06.703Z,63.4
2023-04-27T01:10:23.673Z,63.4
2023-04-27T01:11:40.630Z,63.5
2023-04-27T01:12:57.645Z,63.8
2023-04-27T01:14:14.637Z,64
2023-04-27T01:15:31.645Z,64.3
2023-04-27T01:16:48.743Z,64.6
2023-04-27T01:18:05.708Z,64.8
2023-04-27T01:19:22.629Z,64.9
2023-04-27T01:20:39.665Z,65
2023-04-27T01:21:56.646Z,65
2023-04-27T01:23:15.453Z,64.5
2023-04-27T01:24:30.712Z,64.2
2023-04-27T01:25:47.672Z,64
2023-04-27T01:27:04.710Z,63.9
2023-04-27T01:28:21.672Z,63.7
2023-04-27T01:29:38.719Z,63.6
2023-04-27T01:30:55.649Z,63.5
2023-04-27T01:32:12.718Z,63.4
2023-04-27T01:33:29.645Z,63.6
2023-04-27T01:34:46.668Z,63.5
2023-04-27T01:36:03.767Z,64
2023-04-27T01:37:20.654Z,65
2023-04-27T01:38:37.655Z,65.6
2023-04-27T01:39:54.738Z,66.3
2023-04-27T01:41:11.678Z,66.8
2023-04-27T01:42:28.668Z,67.3
2023-04-27T01:43:46.561Z,67.8
2023-04-27T01:45:02.670Z,68.1
2023-04-27T01:46:19.809Z,68.6
2023-04-27T01:47:36.748Z,68.9
2023-04-27T01:48:53.668Z,68.8
2023-04-27T01:50:10.680Z,68.6
2023-04-27T01:51:27.725Z,68.1
2023-04-27T01:52:44.722Z,67.5
2023-04-27T01:54:01.683Z,67.2
2023-04-27T01:55:18.709Z,66.6
2023-04-27T01:56:35.754Z,66.5
2023-04-27T01:57:52.686Z,66.2
2023-04-27T01:59:09.703Z,65.9
2023-04-27T02:00:26.758Z,65.8
2023-04-27T02:01:43.748Z,65.6
2023-04-27T02:03:00.846Z,65.7
2023-04-27T02:04:17.896Z,65.8
2023-04-27T02:05:34.754Z,65.8
2023-04-27T02:06:51.798Z,65.7
2023-04-27T02:08:08.722Z,65.5
2023-04-27T02:09:25.736Z,65.2
2023-04-27T02:10:42.739Z,65
2023-04-27T02:11:59.720Z,64.6
2023-04-27T02:13:16.705Z,64.5
2023-04-27T02:14:33.719Z,64.7
2023-04-27T02:15:50.768Z,64.5
2023-04-27T02:17:08.065Z,64.6
2023-04-27T02:18:24.717Z,65.1
2023-04-27T02:19:41.751Z,65
2023-04-27T02:20:58.716Z,65
2023-04-27T02:22:15.779Z,65.1
2023-04-27T02:23:32.768Z,65
2023-04-27T02:24:49.720Z,64.9
2023-04-27T02:26:06.722Z,64.9
2023-04-27T02:27:23.741Z,64.8
2023-04-27T02:28:40.793Z,64.9
2023-04-27T02:29:57.851Z,65.2
2023-04-27T02:31:14.815Z,65.4
2023-04-27T02:32:31.853Z,65.5
2023-04-27T02:33:48.796Z,65.4
2023-04-27T02:35:05.710Z,65.3
2023-04-27T02:36:22.818Z,65.3
2023-04-27T02:37:39.954Z,65.4
2023-04-27T02:38:56.755Z,65.4
2023-04-27T02:40:13.771Z,65.4
2023-04-27T02:41:30.877Z,65.5
2023-04-27T02:42:47.768Z,65.5
2023-04-27T02:44:04.753Z,65.2
2023-04-27T02:45:21.895Z,65.4
2023-04-27T02:46:38.846Z,66
2023-04-27T02:47:55.828Z,66.9
2023-04-27T02:49:12.961Z,67.7
2023-04-27T02:50:29.765Z,68.3
2023-04-27T02:51:46.871Z,68.7
2023-04-27T02:53:03.959Z,69
2023-04-27T02:54:20.737Z,69.2
2023-04-27T02:55:37.771Z,69.6
2023-04-27T02:56:54.787Z,69.8
2023-04-27T02:58:11.840Z,69.8
2023-04-27T02:59:28.801Z,69.3
2023-04-27T03:00:46.168Z,68.9
2023-04-27T03:02:02.815Z,68.3
2023-04-27T03:03:20.018Z,67.8
2023-04-27T03:04:36.862Z,67.3
2023-04-27T03:05:53.781Z,67
2023-04-27T03:07:10.786Z,66.6
2023-04-27T03:08:27.795Z,66.6
2023-04-27T03:09:44.760Z,66.7
2023-04-27T03:11:01.872Z,66.5
2023-04-27T03:12:18.807Z,66.6
2023-04-27T03:13:35.811Z,66.4
2023-04-27T03:14:53.079Z,65.9
2023-04-27T03:16:09.913Z,65.4
2023-04-27T03:17:26.822Z,65
2023-04-27T03:18:43.810Z,65
2023-04-27T03:20:00.785Z,65
2023-04-27T03:21:17.842Z,65.2
2023-04-27T03:22:34.790Z,65.2
2023-04-27T03:23:51.815Z,65.3
2023-04-27T03:25:08.839Z,65.3
2023-04-27T03:26:25.826Z,65.2
2023-04-27T03:27:42.919Z,65.4
2023-04-27T03:28:59.812Z,65.7
2023-04-27T03:30:17.089Z,65.5
2023-04-27T03:31:33.971Z,65.5
2023-04-27T03:32:50.823Z,65.5
2023-04-27T03:34:07.804Z,65.2
2023-04-27T03:35:24.804Z,65.3
2023-04-27T03:36:41.826Z,65.5
2023-04-27T03:37:58.844Z,65.6
2023-04-27T03:39:16.186Z,65.5
2023-04-27T03:40:32.821Z,65.6
2023-04-27T03:41:49.796Z,65.8
2023-04-27T03:43:06.798Z,65.9
2023-04-27T03:44:23.858Z,65.8
2023-04-27T03:45:40.860Z,65.8
2023-04-27T03:46:58.069Z,66
2023-04-27T03:48:14.832Z,66.1
2023-04-27T03:49:31.816Z,66.1
2023-04-27T03:50:48.831Z,66
2023-04-27T03:52:05.902Z,66.5
2023-04-27T03:53:22.952Z,67.3
2023-04-27T03:54:39.859Z,67.9
2023-04-27T03:55:56.912Z,68.5
2023-04-27T03:57:13.919Z,69.4
2023-04-27T03:58:30.893Z,69.9
2023-04-27T03:59:47.852Z,70.3
2023-04-27T04:01:04.882Z,70.4
2023-04-27T04:02:22.000Z,69.9
2023-04-27T04:03:38.976Z,69.1
2023-04-27T04:04:56.140Z,68.6
2023-04-27T04:06:12.922Z,68.5
2023-04-27T04:07:29.849Z,68.1
2023-04-27T04:08:46.893Z,67.5
2023-04-27T04:10:03.914Z,67
2023-04-27T04:11:20.895Z,66.5
2023-04-27T04:12:37.857Z,66.1
2023-04-27T04:13:54.856Z,65.7
2023-04-27T04:15:11.931Z,65.3
2023-04-27T04:16:28.923Z,64.8
2023-04-27T04:17:45.909Z,64.6
2023-04-27T04:19:02.887Z,64.8
2023-04-27T04:20:19.844Z,65
2023-04-27T04:21:36.921Z,65.6
2023-04-27T04:22:53.870Z,65.5
2023-04-27T04:24:10.876Z,65.4
2023-04-27T04:25:27.863Z,65.1
2023-04-27T04:26:44.910Z,64.9
2023-04-27T04:28:01.900Z,64.8
2023-04-27T04:29:18.875Z,64.6
2023-04-27T04:30:35.890Z,64.7
2023-04-27T04:31:53.016Z,64.7
2023-04-27T04:33:09.912Z,64.2
2023-04-27T04:34:26.867Z,63.9
2023-04-27T04:35:44.395Z,64.3
2023-04-27T04:37:00.913Z,64
2023-04-27T04:38:17.910Z,63.4
2023-04-27T04:39:34.872Z,62.8
2023-04-27T04:40:51.945Z,62.1
2023-04-27T04:42:08.900Z,62.2
2023-04-27T04:43:25.907Z,62.2
2023-04-27T04:44:42.887Z,62.2
2023-04-27T04:45:59.908Z,62.5
2023-04-27T04:47:16.979Z,62.2
2023-04-27T04:48:33.922Z,62.3
2023-04-27T04:49:50.916Z,62.2
2023-04-27T04:51:08.002Z,62.6
2023-04-27T04:52:24.918Z,62.8
2023-04-27T04:53:41.918Z,62.7
2023-04-27T04:54:58.880Z,62.4
2023-04-27T04:56:15.951Z,62.1
2023-04-27T04:57:32.919Z,62.3
2023-04-27T04:58:49.924Z,62.4
2023-04-27T05:00:06.927Z,63
2023-04-27T05:01:24.108Z,63.7
2023-04-27T05:02:41.193Z,63.7
2023-04-27T05:03:58.111Z,64
2023-04-27T05:05:14.912Z,64.5
2023-04-27T05:06:31.988Z,64.9
2023-04-27T05:07:48.936Z,64.9
2023-04-27T05:09:05.949Z,64.9
2023-04-27T05:10:22.919Z,65.2
2023-04-27T05:11:39.977Z,65.4
2023-04-27T05:12:56.939Z,64.9
2023-04-27T05:14:13.920Z,63.8
2023-04-27T05:15:30.997Z,63.4
2023-04-27T05:16:47.934Z,62.5
2023-04-27T05:18:04.973Z,62
2023-04-27T05:19:21.992Z,62.3
2023-04-27T05:20:39.030Z,61.9
2023-04-27T05:21:55.952Z,61.5
2023-04-27T05:23:12.982Z,61.3
2023-04-27T05:24:29.965Z,61.4
2023-04-27T05:25:47.000Z,61.3
2023-04-27T05:27:03.958Z,61.6
2023-04-27T05:28:21.005Z,61.5
2023-04-27T05:29:37.969Z,61.3
2023-04-27T05:30:54.983Z,61.5
2023-04-27T05:32:11.989Z,61.7
2023-04-27T05:33:28.959Z,61.5
2023-04-27T05:34:48.054Z,61.7
2023-04-27T05:36:03.043Z,61.5
2023-04-27T05:37:19.966Z,61.5
2023-04-27T05:38:36.976Z,61.6
2023-04-27T05:39:53.958Z,61.4
2023-04-27T05:41:11.034Z,61.2
2023-04-27T05:42:27.998Z,61
2023-04-27T05:43:45.007Z,60.8
2023-04-27T05:45:02.050Z,60.2
2023-04-27T05:46:19.199Z,60.2
2023-04-27T05:47:36.144Z,60.3
2023-04-27T05:48:53.136Z,60.4
2023-04-27T05:50:10.043Z,60.3
2023-04-27T05:51:27.025Z,60.3
2023-04-27T05:52:43.993Z,59.9
2023-04-27T05:54:01.015Z,59.7
2023-04-27T05:55:18.032Z,59.9
2023-04-27T05:56:35.036Z,60.1
2023-04-27T05:58:04.569Z,60.1
2023-04-27T05:59:09.038Z,60
2023-04-27T06:00:26.006Z,60.1
2023-04-27T06:01:43.023Z,60
2023-04-27T06:03:00.212Z,60
2023-04-27T06:04:17.128Z,59.9
2023-04-27T06:05:34.143Z,59.8
2023-04-27T06:06:51.029Z,59.4
2023-04-27T06:08:08.005Z,59.2
2023-04-27T06:09:25.020Z,59.4
2023-04-27T06:10:42.048Z,59.9
2023-04-27T06:11:59.093Z,60.4
2023-04-27T06:13:16.016Z,60.6
2023-04-27T06:14:33.013Z,60.7
2023-04-27T06:15:50.084Z,60.6
2023-04-27T06:17:07.142Z,60.7
2023-04-27T06:18:24.087Z,60.3
2023-04-27T06:19:41.090Z,60.1
2023-04-27T06:20:58.036Z,60
2023-04-27T06:22:15.098Z,59.6
2023-04-27T06:23:32.035Z,59.7
2023-04-27T06:24:49.029Z,59.1
2023-04-27T06:26:06.059Z,58.6
2023-04-27T06:27:23.127Z,58.1
2023-04-27T06:28:40.066Z,57.5
2023-04-27T06:29:57.081Z,57.2
2023-04-27T06:31:14.134Z,56.8
2023-04-27T06:32:31.121Z,56.8
2023-04-27T06:33:48.127Z,56.2
2023-04-27T06:35:05.065Z,56.2
2023-04-27T06:36:22.158Z,56.6
2023-04-27T06:37:39.159Z,56.3
2023-04-27T06:38:56.068Z,55.9
2023-04-27T06:40:13.109Z,55.5
2023-04-27T06:41:30.077Z,55.5
2023-04-27T06:42:47.069Z,55.5
2023-04-27T06:44:04.078Z,55.8
2023-04-27T06:45:21.519Z,55.5
2023-04-27T06:46:40.878Z,55.3
2023-04-27T06:47:57.491Z,54.8
2023-04-27T06:49:14.487Z,54.7
2023-04-27T06:50:31.376Z,54.7
2023-04-27T06:51:48.558Z,54.4
2023-04-27T06:53:05.080Z,54.2
2023-04-27T06:54:22.633Z,53.3
2023-04-27T06:55:40.411Z,53.2
2023-04-27T06:56:56.458Z,53.3
2023-04-27T06:58:13.795Z,53.2
2023-04-27T06:59:31.181Z,53.1
2023-04-27T07:00:48.314Z,52.9
2023-04-27T07:02:05.176Z,53.1
2023-04-27T07:03:22.648Z,53.1
2023-04-27T07:04:39.445Z,53.4
2023-04-27T07:05:56.423Z,53.6
2023-04-27T07:07:13.238Z,52.8
2023-04-27T07:08:30.317Z,51.5
2023-04-27T07:09:47.372Z,50.4
2023-04-27T07:11:04.441Z,49.7
2023-04-27T07:12:21.458Z,50.1
2023-04-27T07:13:47.534Z,51.3
2023-04-27T07:15:04.487Z,51.4
2023-04-27T07:16:21.312Z,51.7
2023-04-27T07:17:41.863Z,50.7
2023-04-27T07:18:58.594Z,50.1
2023-04-27T07:20:15.296Z,49.5
2023-04-27T07:21:32.340Z,49.1
2023-04-27T07:22:49.380Z,49.7
2023-04-27T07:24:06.249Z,50
2023-04-27T07:25:23.532Z,49.9
2023-04-27T07:26:40.673Z,49.7
2023-04-27T07:27:57.536Z,50.2
2023-04-27T07:29:26.058Z,49.9
2023-04-27T07:30:31.707Z,49.3
2023-04-27T07:31:49.969Z,48.6
2023-04-27T07:33:05.280Z,47.1
2023-04-27T07:34:22.310Z,46.3
2023-04-27T07:35:39.243Z,45.7
2023-04-27T07:36:56.151Z,46
2023-04-27T07:38:13.264Z,45.8
2023-04-27T07:39:30.493Z,45.5
2023-04-27T07:40:47.334Z,44.9
2023-04-27T07:42:04.397Z,45.6
2023-04-27T07:43:21.696Z,46.1
2023-04-27T07:44:38.915Z,46.6
2023-04-27T07:45:56.166Z,47.1
2023-04-27T07:47:13.133Z,47.4
2023-04-27T07:48:30.717Z,47.5
2023-04-27T07:49:48.374Z,47.5
2023-04-27T07:51:05.277Z,46.8
2023-04-27T07:52:22.482Z,46.4
2023-04-27T07:53:39.631Z,46.6
2023-04-27T07:54:56.419Z,46.7
2023-04-27T07:56:13.222Z,46.4
2023-04-27T07:57:30.553Z,45.9
2023-04-27T07:58:47.587Z,45.4
2023-04-27T08:00:04.627Z,46
2023-04-27T08:01:21.617Z,45.5
2023-04-27T08:02:38.865Z,45.3
2023-04-27T08:03:55.998Z,45
2023-04-27T08:05:12.689Z,44.8
2023-04-27T08:06:29.825Z,44.1
2023-04-27T08:07:46.930Z,44.2
2023-04-27T08:09:03.351Z,44.1
2023-04-27T08:10:20.289Z,44.5
2023-04-27T08:11:38.011Z,44.6
2023-04-27T08:12:55.529Z,45
2023-04-27T08:14:12.594Z,45.3
2023-04-27T08:15:29.609Z,46.1
2023-04-27T08:16:46.591Z,46.3
2023-04-27T08:18:03.588Z,46.2
2023-04-27T08:19:20.560Z,46.6
2023-04-27T08:20:37.344Z,46.7
2023-04-27T08:21:54.908Z,46.8
2023-04-27T08:23:12.853Z,46.3
2023-04-27T08:24:30.213Z,45.9
2023-04-27T08:25:47.769Z,45.9
2023-04-27T08:27:04.501Z,45.6
2023-04-27T08:28:21.488Z,44.3
2023-04-27T08:29:38.266Z,44.1
2023-04-27T08:30:55.560Z,44
2023-04-27T08:32:12.408Z,43.5
2023-04-27T08:33:29.211Z,43.5
2023-04-27T08:34:46.210Z,42.4
2023-04-27T08:36:03.269Z,42.1
2023-04-27T08:37:20.230Z,41.7
2023-04-27T08:38:37.232Z,41.1
2023-04-27T08:39:54.270Z,41.2
2023-04-27T08:41:21.156Z,41.3
2023-04-27T08:42:28.234Z,41.9
2023-04-27T08:43:45.248Z,42
2023-04-27T08:45:02.249Z,41.4
2023-04-27T08:46:19.410Z,40.9
2023-04-27T08:47:43.083Z,40.2
2023-04-27T08:48:53.274Z,39.5
2023-04-27T08:50:10.235Z,38.6
2023-04-27T08:51:27.493Z,38.6
2023-04-27T08:52:44.287Z,39.7
2023-04-27T08:54:01.231Z,40.5
2023-04-27T08:55:18.310Z,39.8
2023-04-27T08:56:35.252Z,39.6
2023-04-27T08:57:52.242Z,38.8
2023-04-27T08:59:09.337Z,38.3
2023-04-27T09:00:26.238Z,38.6
2023-04-27T09:01:43.298Z,39.1
2023-04-27T09:03:00.465Z,39
2023-04-27T09:04:17.540Z,38.5
2023-04-27T09:05:34.318Z,38.2
2023-04-27T09:06:51.275Z,38.6
2023-04-27T09:08:08.385Z,38.4
2023-04-27T09:09:25.431Z,38.6
2023-04-27T09:10:42.360Z,37.9
2023-04-27T09:11:59.246Z,37.1
2023-04-27T09:13:16.294Z,37.2
2023-04-27T09:14:33.310Z,36.6
2023-04-27T09:15:50.348Z,35.6
2023-04-27T09:17:07.293Z,35.8
2023-04-27T09:18:24.290Z,35.6
2023-04-27T09:19:41.313Z,35.6
2023-04-27T09:20:58.285Z,35.2
2023-04-27T09:22:15.292Z,34.9
2023-04-27T09:23:32.350Z,34.4
2023-04-27T09:24:49.358Z,33.8
2023-04-27T09:26:06.501Z,34.5
2023-04-27T09:27:23.334Z,35.4
2023-04-27T09:28:40.313Z,35.3
2023-04-27T09:29:57.312Z,35
2023-04-27T09:31:14.340Z,35.1
2023-04-27T09:32:31.337Z,35.3
2023-04-27T09:33:48.352Z,35.6
2023-04-27T09:35:05.335Z,35.5
2023-04-27T09:36:22.303Z,35.8
2023-04-27T09:37:39.307Z,35.5
2023-04-27T09:38:56.336Z,35.7
2023-04-27T09:40:13.371Z,35.7
2023-04-27T09:41:30.385Z,35.8
2023-04-27T09:42:47.359Z,36
2023-04-27T09:44:04.370Z,36.4
2023-04-27T09:45:21.339Z,36.9
2023-04-27T09:46:38.390Z,37.7
2023-04-27T09:47:55.406Z,38.1
2023-04-27T09:49:12.452Z,38.8
2023-04-27T09:50:29.453Z,39.1
2023-04-27T09:51:47.028Z,40.1
2023-04-27T09:53:04.360Z,40.3
2023-04-27T09:54:21.350Z,39.9
2023-04-27T09:55:38.378Z,40
2023-04-27T09:56:55.347Z,40.4
2023-04-27T09:58:12.374Z,39.8
2023-04-27T09:59:29.327Z,39.5
2023-04-27T10:00:46.407Z,39.5
2023-04-27T10:02:13.505Z,40.1
2023-04-27T10:03:20.437Z,39.2
2023-04-27T10:04:37.541Z,38.2
2023-04-27T10:05:54.472Z,38
2023-04-27T10:07:11.354Z,37.6
2023-04-27T10:08:28.434Z,36.9
2023-04-27T10:09:45.360Z,36.1
2023-04-27T10:11:02.383Z,35.5
2023-04-27T10:12:19.400Z,35.1
2023-04-27T10:13:36.345Z,33.9
2023-04-27T10:14:53.338Z,33.4
2023-04-27T10:16:10.428Z,33
2023-04-27T10:17:27.505Z,32.5
2023-04-27T10:18:44.375Z,32.3
2023-04-27T10:20:01.378Z,32.8
2023-04-27T10:21:18.386Z,32.8
2023-04-27T10:22:36.058Z,32.6
2023-04-27T10:23:52.423Z,32.7
2023-04-27T10:25:09.374Z,32.9
2023-04-27T10:26:26.484Z,33.5
2023-04-27T10:27:43.571Z,34.6
2023-04-27T10:29:00.382Z,35.4
2023-04-27T10:30:17.410Z,36.7
2023-04-27T10:31:34.444Z,37.9
2023-04-27T10:32:51.566Z,38.5
2023-04-27T10:34:08.450Z,38.8
2023-04-27T10:35:25.385Z,38.7
2023-04-27T10:36:42.430Z,38.4
2023-04-27T10:37:59.502Z,38.3
2023-04-27T10:39:16.935Z,38.2
2023-04-27T10:40:33.402Z,38
2023-04-27T10:41:50.453Z,38.8
2023-04-27T10:43:07.495Z,39.6
2023-04-27T10:44:24.428Z,40
2023-04-27T10:45:41.449Z,39
2023-04-27T10:46:58.436Z,38.2
2023-04-27T10:48:15.469Z,38.3
2023-04-27T10:49:32.428Z,37.6
2023-04-27T10:50:49.465Z,36.3
2023-04-27T10:52:06.443Z,35.2
2023-04-27T10:53:23.411Z,34.4
2023-04-27T10:54:40.453Z,34.4
2023-04-27T10:55:57.438Z,34.7
2023-04-27T10:57:14.482Z,35.3
2023-04-27T10:58:41.294Z,35.9
2023-04-27T10:59:48.446Z,36.3
2023-04-27T11:01:05.577Z,36.5
2023-04-27T11:02:22.591Z,36.3
2023-04-27T11:03:39.713Z,36.3
2023-04-27T11:04:56.563Z,36
2023-04-27T11:06:13.501Z,35.8
2023-04-27T11:07:30.496Z,35.8
2023-04-27T11:08:47.435Z,36.1
2023-04-27T11:10:04.472Z,36.2
2023-04-27T11:11:21.491Z,36.2
2023-04-27T11:12:38.465Z,36.8
2023-04-27T11:13:55.637Z,37.3
2023-04-27T11:15:12.514Z,37.8
2023-04-27T11:16:31.404Z,38.2
2023-04-27T11:17:46.499Z,38.5
2023-04-27T11:19:03.487Z,38.7
2023-04-27T11:20:20.486Z,38.8
2023-04-27T11:21:37.436Z,39.1
2023-04-27T11:22:54.487Z,39.1
2023-04-27T11:24:13.242Z,39.4
2023-04-27T11:25:28.502Z,39.1
2023-04-27T11:26:45.518Z,38.8
2023-04-27T11:28:02.488Z,38.2
2023-04-27T11:29:19.533Z,37.9
2023-04-27T11:30:36.523Z,37.6
2023-04-27T11:31:53.522Z,37.1
2023-04-27T11:33:10.522Z,37.1
2023-04-27T11:34:27.498Z,37.3
2023-04-27T11:35:44.714Z,37.8
2023-04-27T11:38:18.492Z,38.8
2023-04-27T11:39:35.502Z,38.9
2023-04-27T11:40:52.506Z,38.4
2023-04-27T11:42:09.572Z,38.5
2023-04-27T11:43:26.529Z,38.1
2023-04-27T11:44:43.525Z,37.8
2023-04-27T11:46:00.524Z,37
2023-04-27T11:47:18.973Z,37.4
2023-04-27T11:48:34.505Z,36.7
2023-04-27T11:49:51.496Z,35.8
2023-04-27T11:51:08.536Z,35.3
2023-04-27T11:52:25.589Z,35.3
2023-04-27T11:53:42.706Z,36.2
2023-04-27T11:54:59.579Z,36.5
2023-04-27T11:56:16.588Z,34.3
2023-04-27T11:57:33.564Z,33.5
2023-04-27T11:58:50.549Z,33.4
2023-04-27T12:00:07.694Z,33.1
2023-04-27T12:01:34.738Z,33.5
2023-04-27T12:02:41.714Z,34
2023-04-27T12:04:00.864Z,34.2
2023-04-27T12:05:15.786Z,34.3
2023-04-27T12:06:33.600Z,34.4
2023-04-27T12:07:49.548Z,34.3
2023-04-27T12:09:06.597Z,34.3
2023-04-27T12:10:23.534Z,34.5
2023-04-27T12:11:40.598Z,34.6
2023-04-27T12:12:57.593Z,34.4
2023-04-27T12:14:14.835Z,34.3
2023-04-27T12:15:31.579Z,34.3
2023-04-27T12:16:48.580Z,34.5
2023-04-27T12:18:05.851Z,34.3
2023-04-27T12:19:22.604Z,34.1
2023-04-27T12:20:39.675Z,34.6
2023-04-27T12:21:56.578Z,35
2023-04-27T12:23:13.575Z,35.2
2023-04-27T12:24:30.556Z,35
2023-04-27T12:25:47.605Z,35.3
2023-04-27T12:27:04.605Z,35.4
2023-04-27T12:28:21.589Z,35.6
2023-04-27T12:29:38.588Z,35.6
2023-04-27T12:30:55.633Z,36.1
2023-04-27T12:32:12.750Z,35.6
2023-04-27T12:33:29.660Z,35.4
2023-04-27T12:34:46.644Z,35.5
2023-04-27T12:36:03.631Z,35.7
2023-04-27T12:37:20.573Z,36
2023-04-27T12:38:37.674Z,36.4
2023-04-27T12:39:54.583Z,36.5
2023-04-27T12:41:11.679Z,36.4
2023-04-27T12:42:28.637Z,36.3
2023-04-27T12:43:45.628Z,36.4
2023-04-27T12:45:02.659Z,36.5
2023-04-27T12:46:19.652Z,36.3
2023-04-27T12:48:53.618Z,36.6
2023-04-27T12:50:10.749Z,36.6
2023-04-27T12:51:27.618Z,36.1
2023-04-27T12:52:44.614Z,36
2023-04-27T12:54:01.916Z,36.2
2023-04-27T12:55:31.260Z,35.4
2023-04-27T12:56:35.604Z,35.2
2023-04-27T12:57:52.633Z,35.2
2023-04-27T13:00:26.624Z,35.5
2023-04-27T13:01:43.711Z,36
2023-04-27T13:03:00.751Z,35.8
2023-04-27T13:04:17.975Z,35.9
2023-04-27T13:05:34.721Z,35.8
2023-04-27T13:06:51.669Z,35.2
2023-04-27T13:08:08.603Z,34.3
2023-04-27T13:09:25.603Z,33.4
2023-04-27T13:10:42.762Z,32.8
2023-04-27T13:12:01.492Z,32.3
2023-04-27T13:13:16.684Z,32.4
2023-04-27T13:14:33.718Z,31.9
2023-04-27T13:15:50.666Z,31.5
2023-04-27T13:17:07.694Z,30.6
2023-04-27T13:18:24.643Z,30.1
2023-04-27T13:19:41.694Z,30.2
2023-04-27T13:20:58.649Z,30.4
2023-04-27T13:22:15.660Z,30.9
2023-04-27T13:23:32.761Z,30.9
2023-04-27T13:24:49.635Z,31.2
2023-04-27T13:26:06.697Z,31.9
2023-04-27T13:27:23.696Z,31.7
2023-04-27T13:28:40.686Z,31.1
2023-04-27T13:29:57.679Z,30.7
2023-04-27T13:31:14.753Z,30.6
2023-04-27T13:32:31.847Z,30.3
2023-04-27T13:33:48.657Z,29.6
2023-04-27T13:35:05.684Z,29.6
2023-04-27T13:36:23.167Z,30.5
2023-04-27T13:37:39.732Z,31.7
2023-04-27T13:38:56.709Z,32.4
2023-04-27T13:40:13.720Z,32.9
2023-04-27T13:41:30.665Z,33.6
2023-04-27T13:42:47.678Z,34
2023-04-27T13:44:04.856Z,34.2
2023-04-27T13:45:21.802Z,34.5
2023-04-27T13:46:38.743Z,34.7
2023-04-27T13:47:55.822Z,34.3
2023-04-27T13:49:12.687Z,34.6
2023-04-27T13:50:29.779Z,35.1
2023-04-27T13:51:46.738Z,35.6
2023-04-27T13:53:03.704Z,36.9
2023-04-27T13:54:20.746Z,37.9
2023-04-27T13:55:37.784Z,38.5
2023-04-27T13:56:54.773Z,39.2
2023-04-27T13:58:11.676Z,40.8
2023-04-27T13:59:28.687Z,42
2023-04-27T14:00:45.766Z,42.9
2023-04-27T14:02:02.798Z,43.5
2023-04-27T14:03:19.908Z,43.9
2023-04-27T14:04:36.713Z,44.3
2023-04-27T14:05:53.729Z,44.8
2023-04-27T14:07:10.760Z,45
2023-04-27T14:08:27.773Z,45.1
2023-04-27T14:09:44.704Z,45
2023-04-27T14:11:01.699Z,44.4
2023-04-27T14:12:18.702Z,44.7
2023-04-27T14:13:35.770Z,44.5
2023-04-27T14:14:52.763Z,44.7
2023-04-27T14:16:09.792Z,44.8
2023-04-27T14:17:26.752Z,44.8
2023-04-27T14:18:43.901Z,44.7
2023-04-27T14:20:00.738Z,44.7
2023-04-27T14:21:17.718Z,44.3
2023-04-27T14:22:34.792Z,44
2023-04-27T14:23:51.774Z,43.9
2023-04-27T14:25:08.754Z,43.6
2023-04-27T14:26:25.727Z,43
2023-04-27T14:27:42.773Z,42.4
2023-04-27T14:28:59.785Z,42
2023-04-27T14:30:16.757Z,40.8
2023-04-27T14:31:33.921Z,40.5
2023-04-27T14:32:50.959Z,40.5
2023-04-27T14:34:07.786Z,40.3
2023-04-27T14:35:24.739Z,39.9
2023-04-27T14:36:41.772Z,39.4
2023-04-27T14:37:58.777Z,39.8
2023-04-27T14:39:16.155Z,39
2023-04-27T14:40:32.782Z,38.5
2023-04-27T14:41:49.784Z,38.1
2023-04-27T14:43:06.762Z,37.8
2023-04-27T14:44:23.804Z,37.3
2023-04-27T14:45:51.453Z,37.4
2023-04-27T14:46:57.833Z,37.7
2023-04-27T14:48:14.859Z,36.9
2023-04-27T14:49:31.837Z,37.1
2023-04-27T14:50:48.800Z,36
2023-04-27T14:52:05.796Z,35.2
2023-04-27T14:53:22.808Z,34.7
2023-04-27T14:54:39.799Z,34.8
2023-04-27T14:55:56.774Z,35.4
2023-04-27T14:57:13.767Z,35.8
2023-04-27T14:58:30.821Z,35.8
2023-04-27T14:59:47.872Z,35.8
2023-04-27T15:01:04.803Z,35.8
2023-04-27T15:02:21.800Z,35.7
2023-04-27T15:03:39.016Z,35.6
2023-04-27T15:04:56.291Z,35.9
2023-04-27T15:06:12.812Z,35.7
2023-04-27T15:07:30.260Z,35.8
2023-04-27T15:08:47.131Z,36.7
2023-04-27T15:10:04.093Z,37.4
2023-04-27T15:11:20.875Z,37.7
2023-04-27T15:12:37.882Z,38
2023-04-27T15:13:54.936Z,38.5
2023-04-27T15:15:11.927Z,38.2
2023-04-27T15:16:28.925Z,37.5
2023-04-27T15:17:45.961Z,37.5
2023-04-27T15:19:02.899Z,37.9
2023-04-27T15:20:19.866Z,38.5
2023-04-27T15:21:36.881Z,38.4
2023-04-27T15:22:54.080Z,37.9
2023-04-27T15:24:10.952Z,38.1
2023-04-27T15:25:27.860Z,38.3
2023-04-27T15:26:44.908Z,38
2023-04-27T15:28:01.857Z,37.5
2023-04-27T15:29:18.887Z,37.3
2023-04-27T15:30:35.839Z,37.3
2023-04-27T15:31:53.336Z,37.3
2023-04-27T15:33:10.470Z,37.3
2023-04-27T15:34:26.897Z,37.2
2023-04-27T15:35:43.900Z,37.1
2023-04-27T15:37:01.402Z,37
2023-04-27T15:38:17.886Z,37.5
2023-04-27T15:39:34.920Z,38.5
2023-04-27T15:40:51.963Z,39.1
2023-04-27T15:42:08.876Z,39.8
2023-04-27T15:43:25.929Z,39.9
2023-04-27T15:44:42.889Z,40
2023-04-27T15:45:59.992Z,40.5
2023-04-27T15:47:16.883Z,40.5
2023-04-27T15:48:33.866Z,40.7
2023-04-27T15:49:57.269Z,40.5
2023-04-27T15:51:10.206Z,40.6
2023-04-27T15:52:25.348Z,40.4
2023-04-27T15:53:41.958Z,40.2
2023-04-27T15:54:58.860Z,40.2
2023-04-27T15:56:15.885Z,40.4
2023-04-27T15:57:32.887Z,40.4
2023-04-27T15:58:49.934Z,40.1
2023-04-27T16:00:07.014Z,39.8
2023-04-27T16:01:23.971Z,39.5
2023-04-27T16:02:41.099Z,39.3
2023-04-27T16:03:58.574Z,39
2023-04-27T16:05:14.898Z,38.9
2023-04-27T16:06:31.898Z,38.4
2023-04-27T16:07:49.295Z,38.4
2023-04-27T16:09:07.658Z,38.5
2023-04-27T16:10:22.897Z,38.5
2023-04-27T16:11:39.916Z,38.3
2023-04-27T16:12:56.900Z,38.6
2023-04-27T16:14:14.188Z,38.7
2023-04-27T16:15:31.168Z,39
2023-04-27T16:16:48.101Z,39.2
2023-04-27T16:18:05.078Z,38.8
2023-04-27T16:19:22.794Z,38.9
2023-04-27T16:20:39.008Z,38.1
2023-04-27T16:21:56.036Z,37.5
2023-04-27T16:23:12.959Z,37.6
2023-04-27T16:24:29.965Z,37.5
2023-04-27T16:25:47.034Z,37.5
2023-04-27T16:27:04.075Z,37.8
2023-04-27T16:28:21.159Z,37.8
2023-04-27T16:29:38.132Z,38.1
2023-04-27T16:30:55.026Z,38.3
2023-04-27T16:32:11.957Z,38.3
2023-04-27T16:33:29.001Z,38.7
2023-04-27T16:34:46.071Z,38.5
2023-04-27T16:36:03.175Z,38.4
2023-04-27T16:37:20.100Z,38.1
2023-04-27T16:38:39.215Z,37.8
2023-04-27T16:39:54.031Z,37.7
2023-04-27T16:41:10.994Z,37.9
2023-04-27T16:42:28.056Z,38
2023-04-27T16:43:45.097Z,38.2
2023-04-27T16:45:02.119Z,38.2
2023-04-27T16:46:19.413Z,38.1
2023-04-27T16:47:36.079Z,38.1
2023-04-27T16:48:53.185Z,38.2
2023-04-27T16:50:10.858Z,38.4
2023-04-27T16:51:28.312Z,38.5
2023-04-27T16:52:45.197Z,38.7
2023-04-27T16:54:02.221Z,38.7
2023-04-27T16:55:19.184Z,38.5
2023-04-27T16:56:36.075Z,38.3
2023-04-27T16:57:53.161Z,38.5
2023-04-27T16:59:10.106Z,38.5
2023-04-27T17:00:27.351Z,39.2
2023-04-27T17:01:44.092Z,39
2023-04-27T17:03:01.220Z,38.8
2023-04-27T17:04:18.392Z,39.2
2023-04-27T17:05:35.157Z,39.5
2023-04-27T17:06:52.034Z,39.6
2023-04-27T17:08:09.053Z,39.4
2023-04-27T17:09:25.988Z,39.2
2023-04-27T17:10:42.978Z,39.5
2023-04-27T17:12:00.116Z,39.8
2023-04-27T17:13:17.132Z,40.4
2023-04-27T17:14:34.166Z,40.8
2023-04-27T17:15:51.205Z,40.8